createdAt,value
2023-03-10T00:01:35.093Z,2.59
2023-03-10T00:04:39.167Z,2.69
2023-03-10T00:07:43.320Z,2.57
2023-03-10T00:10:48.110Z,2.38
2023-03-10T00:13:52.925Z,2.26
2023-03-10T00:16:56.773Z,2.58
2023-03-10T00:20:00.840Z,2.83
2023-03-10T00:23:05.750Z,3.02
2023-03-10T00:26:13.432Z,3.01
2023-03-10T00:29:18.605Z,3.02
2023-03-10T00:32:22.751Z,3.15
2023-03-10T00:35:26.826Z,2.95
2023-03-10T00:38:30.675Z,3.11
2023-03-10T00:41:39.835Z,3.33
2023-03-10T00:44:43.953Z,3.47
2023-03-10T00:47:48.002Z,3.56
2023-03-10T00:50:52.205Z,3.79
2023-03-10T00:53:56.795Z,4.01
2023-03-10T00:57:00.805Z,3.99
2023-03-10T01:00:07.760Z,3.80
2023-03-10T01:03:11.586Z,3.52
2023-03-10T01:06:16.171Z,3.51
2023-03-10T01:09:20.044Z,3.99
2023-03-10T01:12:23.932Z,4.35
2023-03-10T01:15:28.113Z,4.40
2023-03-10T01:18:32.653Z,4.18
2023-03-10T01:21:38.956Z,4.59
2023-03-10T01:24:42.928Z,5.05
2023-03-10T01:27:47.067Z,5.31
2023-03-10T01:30:51.725Z,5.51
2023-03-10T01:33:56.417Z,5.78
2023-03-10T01:37:00.869Z,5.90
2023-03-10T01:40:06.272Z,5.99
2023-03-10T01:43:34.081Z,6.30
2023-03-10T01:46:51.378Z,6.50
2023-03-10T01:50:08.076Z,6.37
2023-03-10T01:53:14.068Z,5.87
2023-03-10T01:56:18.792Z,6.19
2023-03-10T01:59:23.512Z,6.01
2023-03-10T02:02:28.475Z,5.69
2023-03-10T02:05:33.353Z,4.62
2023-03-10T02:08:47.478Z,4.99
2023-03-10T02:11:52.094Z,5.98
2023-03-10T02:14:57.978Z,6.65
2023-03-10T02:18:04.496Z,7.01
2023-03-10T02:21:27.881Z,7.20
2023-03-10T02:24:46.786Z,7.47
2023-03-10T02:27:51.781Z,7.45
2023-03-10T02:30:58.973Z,7.44
2023-03-10T02:34:04.881Z,7.17
2023-03-10T02:37:22.855Z,7.07
2023-03-10T02:40:41.232Z,7.22
2023-03-10T02:43:49.945Z,7.12
2023-03-10T02:47:01.532Z,7.13
2023-03-10T02:50:09.229Z,7.31
2023-03-10T02:53:21.709Z,6.92
2023-03-10T02:56:27.622Z,7.36
2023-03-10T02:59:34.175Z,7.34
2023-03-10T03:02:38.844Z,6.25
2023-03-10T03:05:43.947Z,6.96
2023-03-10T03:08:48.034Z,7.56
2023-03-10T03:11:56.547Z,7.44
2023-03-10T03:15:00.584Z,7.79
2023-03-10T03:18:06.932Z,7.72
2023-03-10T03:21:16.572Z,7.79
2023-03-10T03:24:21.975Z,7.96
2023-03-10T03:27:25.920Z,7.97
2023-03-10T03:30:31.414Z,7.77
2023-03-10T03:33:35.740Z,8.02
2023-03-10T03:36:39.863Z,8.29
2023-03-10T03:39:45.292Z,8.49
2023-03-10T03:42:51.661Z,8.77
2023-03-10T03:45:57.846Z,8.65
2023-03-10T03:49:02.603Z,7.95
2023-03-10T03:52:08.223Z,7.60
2023-03-10T03:55:14.070Z,7.82
2023-03-10T03:58:19.578Z,7.47
2023-03-10T04:01:24.697Z,7.48
2023-03-10T04:04:32.444Z,7.56
2023-03-10T04:07:39.240Z,7.73
2023-03-10T04:10:52.169Z,7.85
2023-03-10T04:13:58.725Z,7.55
2023-03-10T04:17:05.551Z,7.37
2023-03-10T04:20:12.458Z,6.95
2023-03-10T04:23:18.758Z,7.37
2023-03-10T04:26:23.412Z,6.84
2023-03-10T04:29:28.295Z,6.94
2023-03-10T04:32:34.345Z,6.50
2023-03-10T04:36:31.872Z,6.33
2023-03-10T04:39:40.730Z,6.29
2023-03-10T04:42:45.186Z,6.82
2023-03-10T04:45:51.839Z,6.87
2023-03-10T04:48:59.632Z,6.53
2023-03-10T04:52:04.648Z,6.57
2023-03-10T04:55:09.570Z,6.79
2023-03-10T04:58:15.824Z,6.53
2023-03-10T05:01:21.015Z,6.93
2023-03-10T05:04:29.954Z,6.84
2023-03-10T05:07:34.156Z,6.81
2023-03-10T05:10:45.151Z,6.70
2023-03-10T05:13:50.021Z,6.19
2023-03-10T05:16:54.766Z,6.55
2023-03-10T05:19:59.813Z,6.81
2023-03-10T05:23:04.876Z,6.64
2023-03-10T05:26:11.841Z,6.74
2023-03-10T05:29:15.897Z,6.35
2023-03-10T05:32:25.290Z,6.62
2023-03-10T05:35:29.611Z,6.24
2023-03-10T05:38:35.752Z,6.47
2023-03-10T05:41:42.234Z,6.32
2023-03-10T05:44:47.347Z,6.04
2023-03-10T05:47:51.863Z,6.10
2023-03-10T05:51:09.395Z,6.25
2023-03-10T05:54:14.518Z,6.20
2023-03-10T05:57:19.258Z,6.42
2023-03-10T06:00:24.335Z,6.05
2023-03-10T06:03:37.433Z,6.09
2023-03-10T06:06:41.630Z,5.99
2023-03-10T06:09:46.709Z,5.94
2023-03-10T06:12:51.384Z,6.11
2023-03-10T06:15:58.376Z,6.17
2023-03-10T06:19:02.782Z,6.01
2023-03-10T06:22:07.074Z,5.95
2023-03-10T06:25:11.966Z,5.78
2023-03-10T06:28:17.489Z,5.05
2023-03-10T06:31:25.514Z,5.27
2023-03-10T06:34:30.116Z,5.39
2023-03-10T06:37:34.691Z,5.56
2023-03-10T06:40:39.419Z,5.45
2023-03-10T06:43:44.342Z,5.19
2023-03-10T06:46:48.785Z,5.21
2023-03-10T06:49:55.575Z,5.11
2023-03-10T06:52:59.899Z,5.05
2023-03-10T06:56:07.473Z,4.97
2023-03-10T06:59:11.886Z,4.77
2023-03-10T07:02:16.397Z,4.82
2023-03-10T07:05:20.475Z,4.92
2023-03-10T07:08:24.841Z,4.87
2023-03-10T07:11:31.062Z,4.67
2023-03-10T07:14:37.990Z,4.46
2023-03-10T07:17:42.367Z,4.32
2023-03-10T07:20:46.928Z,4.08
2023-03-10T07:23:51.271Z,4.33
2023-03-10T07:26:55.920Z,4.04
2023-03-10T07:29:59.801Z,4.28
2023-03-10T07:33:03.991Z,3.79
2023-03-10T07:36:10.669Z,4.05
2023-03-10T07:39:15.400Z,4.09
2023-03-10T07:42:20.024Z,3.95
2023-03-10T07:45:25.348Z,3.71
2023-03-10T07:48:29.403Z,4.01
2023-03-10T07:51:34.310Z,3.73
2023-03-10T07:54:39.013Z,3.72
2023-03-10T07:57:43.860Z,3.86
2023-03-10T08:00:54.784Z,3.50
2023-03-10T08:03:59.277Z,3.80
2023-03-10T08:07:03.823Z,3.48
2023-03-10T08:10:08.952Z,3.56
2023-03-10T08:13:13.577Z,3.59
2023-03-10T08:16:21.045Z,3.62
2023-03-10T08:19:26.829Z,3.68
2023-03-10T08:22:31.636Z,3.51
2023-03-10T08:25:36.647Z,3.69
2023-03-10T08:28:41.168Z,3.74
2023-03-10T08:31:45.816Z,3.66
2023-03-10T08:34:50.154Z,3.44
2023-03-10T08:37:55.405Z,3.44
2023-03-10T08:41:10.048Z,3.32
2023-03-10T08:44:16.408Z,3.42
2023-03-10T08:47:21.629Z,3.36
2023-03-10T08:50:26.085Z,3.31
2023-03-10T08:53:30.584Z,3.22
2023-03-10T08:56:35.950Z,3.07
2023-03-10T08:59:40.390Z,2.70
2023-03-10T09:02:44.738Z,2.70
2023-03-10T09:05:51.098Z,2.54
2023-03-10T09:08:55.836Z,2.68
2023-03-10T09:12:00.978Z,2.71
2023-03-10T09:15:05.743Z,2.56
2023-03-10T09:18:11.626Z,2.66
2023-03-10T09:21:19.386Z,2.38
2023-03-10T09:24:23.674Z,2.43
2023-03-10T09:27:28.163Z,2.29
2023-03-10T09:30:32.216Z,2.47
2023-03-10T09:33:36.780Z,2.40
2023-03-10T09:36:41.065Z,2.18
2023-03-10T09:39:44.904Z,2.21
2023-03-10T09:42:52.685Z,2.25
2023-03-10T09:46:14.012Z,2.17
2023-03-10T09:49:34.687Z,2.24
2023-03-10T09:52:49.046Z,2.25
2023-03-10T09:55:54.116Z,1.97
2023-03-10T09:59:12.068Z,1.97
2023-03-10T10:02:27.187Z,1.96
2023-03-10T10:05:34.451Z,1.83
2023-03-10T10:09:04.676Z,1.65
2023-03-10T10:12:14.669Z,1.63
2023-03-10T10:15:23.188Z,1.53
2023-03-10T10:18:44.341Z,1.46
2023-03-10T10:22:02.545Z,1.44
2023-03-10T10:25:09.943Z,1.61
2023-03-10T10:28:49.168Z,1.38
2023-03-10T10:32:14.232Z,1.27
2023-03-10T10:35:25.873Z,1.37
2023-03-10T10:38:32.441Z,1.38
2023-03-10T10:41:38.640Z,1.30
2023-03-10T10:44:47.065Z,1.24
2023-03-10T10:47:53.475Z,1.48
2023-03-10T10:50:57.836Z,1.35
2023-03-10T10:54:09.429Z,1.43
2023-03-10T10:57:22.514Z,1.41
2023-03-10T11:00:28.813Z,1.66
2023-03-10T11:03:35.223Z,1.61
2023-03-10T11:06:41.450Z,1.76
2023-03-10T11:09:45.808Z,1.70
2023-03-10T11:13:10.499Z,1.72
2023-03-10T11:16:38.270Z,1.62
2023-03-10T11:20:03.530Z,1.86
2023-03-10T11:23:14.853Z,2.09
2023-03-10T11:26:33.084Z,1.79
2023-03-10T11:29:58.501Z,2.16
2023-03-10T11:33:06.624Z,2.13
2023-03-10T11:36:27.179Z,1.87
2023-03-10T11:39:31.473Z,1.75
2023-03-10T11:42:57.098Z,1.69
2023-03-10T11:46:34.985Z,1.74
2023-03-10T11:49:44.458Z,1.86
2023-03-10T11:52:50.772Z,1.83
2023-03-10T11:55:56.451Z,1.60
2023-03-10T11:59:12.675Z,1.45
2023-03-10T12:02:28.251Z,1.42
2023-03-10T12:05:47.166Z,1.27
2023-03-10T12:08:55.949Z,1.21
2023-03-10T12:12:02.358Z,1.25
2023-03-10T12:15:21.510Z,1.42
2023-03-10T12:18:26.981Z,1.29
2023-03-10T12:21:32.666Z,1.32
2023-03-10T12:24:54.676Z,1.14
2023-03-10T12:28:21.446Z,1.41
2023-03-10T12:31:41.255Z,1.48
2023-03-10T12:34:47.219Z,1.40
2023-03-10T12:38:11.968Z,1.12
2023-03-10T12:41:27.952Z,1.50
2023-03-10T12:44:50.719Z,1.45
2023-03-10T12:48:08.357Z,1.08
2023-03-10T12:51:18.495Z,1.58
2023-03-10T12:54:24.237Z,1.58
2023-03-10T12:57:40.857Z,1.54
2023-03-10T13:00:55.612Z,1.77
2023-03-10T13:04:07.988Z,1.34
2023-03-10T13:07:18.169Z,1.62
2023-03-10T13:10:26.010Z,1.46
2023-03-10T13:13:38.734Z,1.29
2023-03-10T13:16:54.231Z,1.32
2023-03-10T13:19:59.772Z,1.27
2023-03-10T13:23:04.518Z,1.15
2023-03-10T13:26:19.031Z,1.09
2023-03-10T13:29:24.515Z,1.14
2023-03-10T13:32:28.719Z,1.48
2023-03-10T13:35:36.788Z,1.50
2023-03-10T13:38:44.228Z,1.27
2023-03-10T13:41:50.772Z,1.17
2023-03-10T13:44:56.205Z,1.14
2023-03-10T13:48:03.969Z,1.06
2023-03-10T13:51:22.028Z,1.29
2023-03-10T13:54:32.428Z,1.20
2023-03-10T13:57:38.109Z,1.23
2023-03-10T14:00:48.030Z,1.39
2023-03-10T14:04:00.833Z,1.53
2023-03-10T14:07:10.921Z,1.21
2023-03-10T14:10:20.726Z,1.29
2023-03-10T14:13:45.951Z,1.18
2023-03-10T14:17:00.102Z,0.73
2023-03-10T14:20:05.994Z,0.97
2023-03-10T14:23:23.117Z,1.17
2023-03-10T14:26:27.507Z,1.06
2023-03-10T14:29:33.279Z,1.08
2023-03-10T14:32:36.861Z,1.06
2023-03-10T14:35:41.472Z,1.26
2023-03-10T14:38:49.264Z,1.28
2023-03-10T14:41:57.407Z,1.21
2023-03-10T14:45:07.748Z,1.12
2023-03-10T14:48:16.448Z,1.21
2023-03-10T14:51:34.357Z,1.23
2023-03-10T14:54:39.865Z,1.07
2023-03-10T14:57:50.397Z,1.12
2023-03-10T15:00:55.253Z,0.95
2023-03-10T15:04:02.796Z,1.28
2023-03-10T15:07:11.759Z,1.33
2023-03-10T15:10:18.570Z,1.32
2023-03-10T15:13:25.299Z,1.04
2023-03-10T15:16:29.862Z,1.13
2023-03-10T15:19:34.566Z,1.25
2023-03-10T15:22:38.948Z,1.20
2023-03-10T15:25:45.611Z,1.37
2023-03-10T15:28:49.974Z,1.04
2023-03-10T15:31:54.013Z,1.20
2023-03-10T15:34:58.690Z,0.86
2023-03-10T15:38:03.440Z,1.03
2023-03-10T15:41:08.094Z,1.30
2023-03-10T15:44:12.579Z,1.39
2023-03-10T15:47:17.243Z,1.15
2023-03-10T15:50:23.176Z,1.67
2023-03-10T15:53:27.682Z,1.23
2023-03-10T15:56:32.196Z,1.39
2023-03-10T15:59:37.590Z,1.49
2023-03-10T16:02:42.125Z,1.31
2023-03-10T16:05:50.273Z,1.60
2023-03-10T16:08:54.678Z,1.49
2023-03-10T16:11:59.449Z,1.52
2023-03-10T16:15:03.504Z,1.28
2023-03-10T16:18:07.204Z,1.46
2023-03-10T16:21:11.908Z,1.50
2023-03-10T16:24:15.847Z,1.09
2023-03-10T16:27:19.849Z,1.26
2023-03-10T16:30:28.846Z,1.35
2023-03-10T16:33:33.508Z,1.05
2023-03-10T16:36:38.049Z,1.30
2023-03-10T16:39:42.426Z,1.15
2023-03-10T16:42:47.213Z,1.35
2023-03-10T16:45:51.927Z,0.87
2023-03-10T16:48:57.249Z,1.04
2023-03-10T16:52:03.696Z,1.15
2023-03-10T16:55:10.218Z,1.35
2023-03-10T16:58:15.079Z,0.98
2023-03-10T17:01:20.527Z,1.14
2023-03-10T17:04:24.537Z,1.22
2023-03-10T17:07:28.478Z,1.44
2023-03-10T17:10:34.219Z,1.62
2023-03-10T17:13:39.492Z,1.65
2023-03-10T17:16:45.595Z,1.34
2023-03-10T17:19:51.876Z,1.61
2023-03-10T17:22:56.215Z,1.37
2023-03-10T17:26:02.012Z,1.45
2023-03-10T17:29:06.623Z,1.14
2023-03-10T17:32:10.791Z,1.26
2023-03-10T17:35:15.381Z,1.39
2023-03-10T17:38:19.347Z,1.33
2023-03-10T17:41:23.973Z,1.39
2023-03-10T17:44:27.910Z,1.30
2023-03-10T17:47:33.161Z,1.20
2023-03-10T17:50:36.996Z,1.40
2023-03-10T17:53:41.204Z,1.20
2023-03-10T17:56:45.477Z,1.34
2023-03-10T17:59:52.036Z,1.26
2023-03-10T18:02:56.285Z,1.30
2023-03-10T18:06:00.555Z,1.76
2023-03-10T18:09:07.204Z,1.60
2023-03-10T18:12:11.995Z,1.79
2023-03-10T18:15:16.779Z,1.66
2023-03-10T18:18:20.956Z,1.50
2023-03-10T18:21:26.272Z,1.55
2023-03-10T18:24:30.663Z,1.53
2023-03-10T18:27:35.076Z,1.27
2023-03-10T18:30:44.500Z,1.38
2023-03-10T18:33:49.473Z,1.32
2023-03-10T18:36:53.924Z,1.71
2023-03-10T18:39:59.117Z,1.73
2023-03-10T18:43:02.856Z,1.37
2023-03-10T18:46:07.556Z,1.42
2023-03-10T18:49:12.087Z,1.39
2023-03-10T18:52:19.468Z,1.35
2023-03-10T18:55:23.403Z,1.11
2023-03-10T18:58:27.419Z,1.61
2023-03-10T19:01:33.070Z,1.38
2023-03-10T19:04:38.228Z,1.13
2023-03-10T19:07:42.343Z,1.39
2023-03-10T19:10:46.387Z,1.87
2023-03-10T19:13:51.169Z,1.73
2023-03-10T19:16:55.323Z,1.75
2023-03-10T19:19:59.719Z,1.67
2023-03-10T19:23:03.650Z,1.79
2023-03-10T19:26:09.859Z,1.65
2023-03-10T19:29:14.076Z,1.65
2023-03-10T19:32:17.826Z,0.93
2023-03-10T19:35:22.160Z,1.87
2023-03-10T19:38:28.902Z,1.95
2023-03-10T19:41:32.829Z,2.24
2023-03-10T19:44:39.597Z,2.29
2023-03-10T19:47:44.189Z,2.17
2023-03-10T19:50:55.728Z,2.41
2023-03-10T19:54:02.610Z,1.84
2023-03-10T19:57:08.431Z,1.83
2023-03-10T20:00:16.949Z,1.92
2023-03-10T20:03:21.571Z,1.82
2023-03-10T20:06:26.587Z,1.89
2023-03-10T20:09:30.585Z,1.91
2023-03-10T20:12:34.892Z,2.08
2023-03-10T20:15:39.766Z,1.86
2023-03-10T20:18:43.730Z,1.61
2023-03-10T20:21:48.124Z,1.48
2023-03-10T20:24:52.077Z,1.58
2023-03-10T20:27:56.974Z,1.64
2023-03-10T20:31:01.094Z,1.70
2023-03-10T20:34:07.784Z,1.74
2023-03-10T20:37:11.970Z,1.71
2023-03-10T20:40:24.719Z,1.42
2023-03-10T20:43:28.912Z,1.37
2023-03-10T20:46:33.656Z,1.43
2023-03-10T20:49:37.655Z,1.59
2023-03-10T20:52:44.191Z,1.72
2023-03-10T20:55:48.202Z,1.75
2023-03-10T20:58:51.861Z,1.21
2023-03-10T21:01:55.691Z,1.62
2023-03-10T21:05:00.595Z,1.77
2023-03-10T21:08:05.068Z,1.77
2023-03-10T21:11:08.956Z,2.12
2023-03-10T21:14:12.960Z,2.10
2023-03-10T21:17:17.726Z,2.16
2023-03-10T21:20:23.438Z,2.14
2023-03-10T21:23:27.317Z,2.27
2023-03-10T21:26:31.814Z,2.38
2023-03-10T21:29:36.646Z,2.38
2023-03-10T21:32:40.766Z,2.21
2023-03-10T21:35:45.065Z,2.24
2023-03-10T21:38:53.364Z,2.14
2023-03-10T21:42:00.410Z,2.28
2023-03-10T21:45:06.300Z,2.39
2023-03-10T21:48:12.113Z,2.36
2023-03-10T21:51:18.268Z,2.15
2023-03-10T21:54:22.818Z,2.11
2023-03-10T21:57:26.863Z,2.10
2023-03-10T22:00:30.854Z,2.06
2023-03-10T22:03:37.025Z,2.31
2023-03-10T22:06:41.716Z,2.29
2023-03-10T22:09:45.885Z,2.20
2023-03-10T22:12:49.920Z,2.12
2023-03-10T22:15:54.013Z,2.00
2023-03-10T22:18:58.454Z,1.96
2023-03-10T22:22:05.218Z,2.09
2023-03-10T22:25:09.787Z,2.15
2023-03-10T22:28:14.664Z,2.33
2023-03-10T22:31:20.149Z,2.40
2023-03-10T22:34:24.123Z,2.39
2023-03-10T22:37:28.410Z,2.39
2023-03-10T22:40:32.960Z,2.27
2023-03-10T22:43:37.323Z,2.26
2023-03-10T22:46:45.159Z,2.11
2023-03-10T22:49:49.304Z,2.49
2023-03-10T22:52:53.212Z,2.41
2023-03-10T22:55:57.778Z,2.55
2023-03-10T22:59:04.567Z,2.41
2023-03-10T23:02:11.547Z,2.41
2023-03-10T23:05:16.628Z,2.42
2023-03-10T23:08:21.410Z,2.45
2023-03-10T23:11:25.726Z,2.35
2023-03-10T23:14:29.631Z,2.28
2023-03-10T23:17:33.722Z,2.37
2023-03-10T23:20:42.338Z,2.60
2023-03-10T23:23:48.578Z,2.69
2023-03-10T23:26:52.553Z,2.52
2023-03-10T23:29:56.428Z,2.53
2023-03-10T23:33:00.621Z,2.57
2023-03-10T23:36:04.501Z,2.68
2023-03-10T23:39:11.861Z,2.78
2023-03-10T23:42:15.911Z,2.62
2023-03-10T23:45:22.484Z,2.65
2023-03-10T23:48:26.657Z,2.58
2023-03-10T23:51:31.517Z,2.52
2023-03-10T23:54:36.077Z,2.50
2023-03-10T23:57:40.132Z,2.52
